RPA4432 KORD-KDSM
Flight info
| Callsign | RPA4432 |
|---|---|
| Flight time | 0h 50m |
| Altitude | 28000 |
| Route | OLINN OREOS OBENE |
| Aircraft | E75L/M-SDE3GILORVW/S |
Departure
| Time | 2026-05-04 01:09 |
|---|---|
| Airport | Chicago O'Hare International Airport (KORD) |
Arrival
| Time | 2026-05-04 01:59 |
|---|---|
| Airport | Des Moines International Airport (KDSM) |
| Time | Latitude | Longitude | Altitude | Speed | Heading |
|---|---|---|---|---|---|
| 2026-05-04 00:40 | 41.97544 | -87.90738 | 668 ft | 0 kts | 157° |
| 2026-05-04 00:57 | 41.97546 | -87.90739 | 668 ft | 1 kts | 158° |
| 2026-05-04 00:57 | 41.97562 | -87.90746 | 666 ft | 3 kts | 169° |
| 2026-05-04 00:58 | 41.97582 | -87.90747 | 668 ft | 3 kts | 193° |
| 2026-05-04 00:58 | 41.97599 | -87.90736 | 668 ft | 3 kts | 221° |
| 2026-05-04 00:58 | 41.97612 | -87.90715 | 668 ft | 3 kts | 242° |
| 2026-05-04 00:58 | 41.97619 | -87.90690 | 668 ft | 3 kts | 250° |
| 2026-05-04 00:59 | 41.97622 | -87.90681 | 668 ft | 0 kts | 249° |
| 2026-05-04 00:59 | 41.97617 | -87.90699 | 668 ft | 3 kts | 249° |
| 2026-05-04 00:59 | 41.97610 | -87.90724 | 668 ft | 3 kts | 250° |
| 2026-05-04 00:59 | 41.97604 | -87.90747 | 668 ft | 1 kts | 250° |
| 2026-05-04 01:00 | 41.97603 | -87.90750 | 668 ft | 2 kts | 250° |
| 2026-05-04 01:01 | 41.97597 | -87.90773 | 667 ft | 6 kts | 252° |
| 2026-05-04 01:02 | 41.97579 | -87.90847 | 668 ft | 10 kts | 249° |
| 2026-05-04 01:02 | 41.97550 | -87.90949 | 668 ft | 12 kts | 249° |
| 2026-05-04 01:02 | 41.97514 | -87.91053 | 668 ft | 10 kts | 217° |
| 2026-05-04 01:02 | 41.97466 | -87.91035 | 667 ft | 10 kts | 140° |
| 2026-05-04 01:03 | 41.97410 | -87.90970 | 667 ft | 11 kts | 139° |
| 2026-05-04 01:03 | 41.97347 | -87.90896 | 668 ft | 13 kts | 137° |
| 2026-05-04 01:03 | 41.97283 | -87.90807 | 668 ft | 14 kts | 132° |
| 2026-05-04 01:03 | 41.97229 | -87.90695 | 668 ft | 15 kts | 109° |
| 2026-05-04 01:04 | 41.97216 | -87.90555 | 668 ft | 16 kts | 94° |
| 2026-05-04 01:04 | 41.97209 | -87.90403 | 668 ft | 17 kts | 92° |
| 2026-05-04 01:04 | 41.97207 | -87.90236 | 668 ft | 18 kts | 89° |
| 2026-05-04 01:04 | 41.97207 | -87.90058 | 668 ft | 20 kts | 90° |
| 2026-05-04 01:05 | 41.97218 | -87.89871 | 668 ft | 20 kts | 71° |
| 2026-05-04 01:05 | 41.97265 | -87.89741 | 668 ft | 5 kts | 91° |
| 2026-05-04 01:05 | 41.97217 | -87.89706 | 668 ft | 13 kts | 182° |
| 2026-05-04 01:05 | 41.97120 | -87.89658 | 668 ft | 18 kts | 120° |
| 2026-05-04 01:06 | 41.97090 | -87.89487 | 668 ft | 19 kts | 97° |
| 2026-05-04 01:06 | 41.97046 | -87.89374 | 668 ft | 15 kts | 102° |
| 2026-05-04 01:06 | 41.97044 | -87.89226 | 667 ft | 17 kts | 90° |
| 2026-05-04 01:06 | 41.97045 | -87.89062 | 667 ft | 18 kts | 89° |
| 2026-05-04 01:07 | 41.97045 | -87.88883 | 666 ft | 20 kts | 90° |
| 2026-05-04 01:07 | 41.97044 | -87.88692 | 666 ft | 21 kts | 90° |
| 2026-05-04 01:07 | 41.97043 | -87.88492 | 666 ft | 19 kts | 97° |
| 2026-05-04 01:07 | 41.96958 | -87.88438 | 663 ft | 18 kts | 182° |
| 2026-05-04 01:08 | 41.96908 | -87.88556 | 662 ft | 24 kts | 270° |
| 2026-05-04 01:08 | 41.96906 | -87.89118 | 664 ft | 95 kts | 270° |
| 2026-05-04 01:08 | 41.96904 | -87.90270 | 667 ft | 151 kts | 269° |
| 2026-05-04 01:08 | 41.96882 | -87.91807 | 1144 ft | 178 kts | 266° |
| 2026-05-04 01:09 | 41.96827 | -87.93507 | 2063 ft | 175 kts | 263° |
| 2026-05-04 01:09 | 41.96712 | -87.95194 | 2910 ft | 188 kts | 261° |
| 2026-05-04 01:09 | 41.96520 | -87.96979 | 3806 ft | 196 kts | 262° |
| 2026-05-04 01:09 | 41.96349 | -87.98898 | 4458 ft | 218 kts | 264° |
| 2026-05-04 01:10 | 41.96190 | -88.01022 | 5067 ft | 238 kts | 265° |
| 2026-05-04 01:10 | 41.96046 | -88.03281 | 5912 ft | 246 kts | 266° |
| 2026-05-04 01:10 | 41.95905 | -88.05590 | 6844 ft | 250 kts | 267° |
| 2026-05-04 01:10 | 41.95764 | -88.07930 | 7712 ft | 253 kts | 267° |
| 2026-05-04 01:11 | 41.95626 | -88.10277 | 8468 ft | 257 kts | 268° |
| 2026-05-04 01:11 | 41.95482 | -88.12692 | 9270 ft | 261 kts | 268° |
| 2026-05-04 01:11 | 41.95336 | -88.15142 | 10031 ft | 266 kts | 268° |
| 2026-05-04 01:11 | 41.95188 | -88.17682 | 10512 ft | 279 kts | 268° |
| 2026-05-04 01:12 | 41.95030 | -88.20340 | 11057 ft | 290 kts | 268° |
| 2026-05-04 01:12 | 41.94865 | -88.23070 | 11764 ft | 296 kts | 268° |
| 2026-05-04 01:12 | 41.94698 | -88.25839 | 12552 ft | 300 kts | 268° |
| 2026-05-04 01:12 | 41.94528 | -88.28644 | 13394 ft | 303 kts | 269° |
| 2026-05-04 01:13 | 41.94356 | -88.31483 | 14199 ft | 306 kts | 269° |
| 2026-05-04 01:13 | 41.94183 | -88.34302 | 14988 ft | 308 kts | 269° |
| 2026-05-04 01:13 | 41.94006 | -88.37183 | 15807 ft | 311 kts | 269° |
| 2026-05-04 01:13 | 41.93827 | -88.40092 | 16577 ft | 314 kts | 269° |
| 2026-05-04 01:14 | 41.93645 | -88.43036 | 17318 ft | 318 kts | 269° |
| 2026-05-04 01:14 | 41.93460 | -88.46013 | 18083 ft | 322 kts | 269° |
| 2026-05-04 01:14 | 41.93272 | -88.49013 | 18775 ft | 324 kts | 269° |
| 2026-05-04 01:14 | 41.93083 | -88.52039 | 19432 ft | 327 kts | 269° |
| 2026-05-04 01:15 | 41.92892 | -88.55092 | 20064 ft | 330 kts | 269° |
| 2026-05-04 01:15 | 41.92697 | -88.58170 | 20690 ft | 332 kts | 269° |
| 2026-05-04 01:15 | 41.92503 | -88.61234 | 21282 ft | 335 kts | 269° |
| 2026-05-04 01:15 | 41.92304 | -88.64362 | 21876 ft | 338 kts | 269° |
| 2026-05-04 01:16 | 41.92101 | -88.67518 | 22464 ft | 341 kts | 269° |
| 2026-05-04 01:16 | 41.91896 | -88.70701 | 23072 ft | 344 kts | 269° |
| 2026-05-04 01:16 | 41.91689 | -88.73913 | 23628 ft | 347 kts | 269° |
| 2026-05-04 01:16 | 41.91479 | -88.77152 | 24136 ft | 350 kts | 269° |
| 2026-05-04 01:17 | 41.91265 | -88.80419 | 24628 ft | 353 kts | 269° |
| 2026-05-04 01:17 | 41.91093 | -88.83717 | 25125 ft | 355 kts | 272° |
| 2026-05-04 01:17 | 41.91010 | -88.87045 | 25568 ft | 358 kts | 272° |
| 2026-05-04 01:17 | 41.90914 | -88.90402 | 26031 ft | 361 kts | 272° |
| 2026-05-04 01:18 | 41.90816 | -88.93740 | 26474 ft | 364 kts | 272° |
| 2026-05-04 01:18 | 41.90711 | -88.97152 | 26916 ft | 367 kts | 272° |
| 2026-05-04 01:18 | 41.90604 | -89.00589 | 27340 ft | 370 kts | 272° |
| 2026-05-04 01:18 | 41.90494 | -89.04051 | 27765 ft | 372 kts | 272° |
| 2026-05-04 01:19 | 41.90382 | -89.07559 | 27874 ft | 383 kts | 272° |
| 2026-05-04 01:19 | 41.90265 | -89.11180 | 27888 ft | 394 kts | 271° |
| 2026-05-04 01:19 | 41.90142 | -89.14901 | 27912 ft | 404 kts | 271° |
| 2026-05-04 01:19 | 41.90015 | -89.18725 | 27894 ft | 415 kts | 271° |
| 2026-05-04 01:20 | 41.89768 | -89.22631 | 27861 ft | 425 kts | 267° |
| 2026-05-04 01:20 | 41.89398 | -89.26532 | 27783 ft | 427 kts | 266° |
| 2026-05-04 01:20 | 41.89018 | -89.30500 | 27777 ft | 430 kts | 266° |
| 2026-05-04 01:20 | 41.88633 | -89.34491 | 27776 ft | 432 kts | 266° |
| 2026-05-04 01:21 | 41.88246 | -89.38490 | 27780 ft | 433 kts | 266° |
| 2026-05-04 01:21 | 41.87857 | -89.42499 | 27786 ft | 434 kts | 266° |
| 2026-05-04 01:21 | 41.87466 | -89.46512 | 27776 ft | 434 kts | 266° |
| 2026-05-04 01:21 | 41.87075 | -89.50523 | 27775 ft | 434 kts | 266° |
| 2026-05-04 01:22 | 41.86681 | -89.54541 | 27775 ft | 434 kts | 266° |
| 2026-05-04 01:22 | 41.86290 | -89.58505 | 27780 ft | 434 kts | 266° |
| 2026-05-04 01:22 | 41.85894 | -89.62520 | 27784 ft | 434 kts | 266° |
| 2026-05-04 01:22 | 41.85495 | -89.66538 | 27787 ft | 434 kts | 266° |
| 2026-05-04 01:23 | 41.85095 | -89.70550 | 27765 ft | 434 kts | 266° |
| 2026-05-04 01:23 | 41.84705 | -89.74567 | 27782 ft | 434 kts | 267° |
| 2026-05-04 01:23 | 41.84361 | -89.78587 | 27784 ft | 434 kts | 267° |
| 2026-05-04 01:23 | 41.84011 | -89.82605 | 27780 ft | 434 kts | 267° |
| 2026-05-04 01:24 | 41.83661 | -89.86624 | 27783 ft | 434 kts | 267° |
| 2026-05-04 01:24 | 41.83305 | -89.90647 | 27786 ft | 434 kts | 267° |
| 2026-05-04 01:24 | 41.82949 | -89.94666 | 27785 ft | 435 kts | 267° |
| 2026-05-04 01:24 | 41.82596 | -89.98635 | 27784 ft | 434 kts | 267° |
| 2026-05-04 01:25 | 41.82235 | -90.02653 | 27794 ft | 434 kts | 267° |
| 2026-05-04 01:25 | 41.81874 | -90.06676 | 27791 ft | 434 kts | 267° |
| 2026-05-04 01:25 | 41.81511 | -90.10695 | 27788 ft | 435 kts | 267° |
| 2026-05-04 01:25 | 41.81146 | -90.14716 | 27788 ft | 435 kts | 267° |
| 2026-05-04 01:26 | 41.80779 | -90.18738 | 27782 ft | 435 kts | 267° |
| 2026-05-04 01:26 | 41.80411 | -90.22763 | 27785 ft | 435 kts | 267° |
| 2026-05-04 01:26 | 41.80041 | -90.26783 | 27787 ft | 435 kts | 267° |
| 2026-05-04 01:26 | 41.79670 | -90.30809 | 27786 ft | 435 kts | 267° |
| 2026-05-04 01:27 | 41.79297 | -90.34829 | 27786 ft | 435 kts | 267° |
| 2026-05-04 01:27 | 41.78929 | -90.38797 | 27769 ft | 435 kts | 266° |
| 2026-05-04 01:27 | 41.78553 | -90.42814 | 27777 ft | 435 kts | 266° |
| 2026-05-04 01:27 | 41.78178 | -90.46825 | 27784 ft | 435 kts | 266° |
| 2026-05-04 01:28 | 41.77800 | -90.50841 | 27791 ft | 435 kts | 266° |
| 2026-05-04 01:28 | 41.77421 | -90.54854 | 27793 ft | 434 kts | 266° |
| 2026-05-04 01:28 | 41.77042 | -90.58831 | 27780 ft | 427 kts | 267° |
| 2026-05-04 01:28 | 41.76668 | -90.62777 | 27791 ft | 428 kts | 267° |
| 2026-05-04 01:29 | 41.76291 | -90.66727 | 27793 ft | 428 kts | 267° |
| 2026-05-04 01:29 | 41.75913 | -90.70676 | 27793 ft | 428 kts | 266° |
| 2026-05-04 01:29 | 41.75533 | -90.74627 | 27792 ft | 428 kts | 266° |
| 2026-05-04 01:29 | 41.75152 | -90.78579 | 27809 ft | 427 kts | 266° |
| 2026-05-04 01:30 | 41.74774 | -90.82478 | 27794 ft | 428 kts | 266° |
| 2026-05-04 01:30 | 41.74390 | -90.86429 | 27792 ft | 428 kts | 266° |
| 2026-05-04 01:30 | 41.74005 | -90.90383 | 27790 ft | 428 kts | 266° |
| 2026-05-04 01:30 | 41.73618 | -90.94333 | 27794 ft | 428 kts | 266° |
| 2026-05-04 01:31 | 41.73230 | -90.98285 | 27793 ft | 428 kts | 266° |
| 2026-05-04 01:31 | 41.72840 | -91.02234 | 27793 ft | 428 kts | 266° |
| 2026-05-04 01:31 | 41.72450 | -91.06191 | 27794 ft | 428 kts | 266° |
| 2026-05-04 01:31 | 41.72060 | -91.10141 | 27799 ft | 428 kts | 266° |
| 2026-05-04 01:32 | 41.71670 | -91.14096 | 27807 ft | 431 kts | 266° |
| 2026-05-04 01:32 | 41.71279 | -91.18017 | 27803 ft | 430 kts | 266° |
| 2026-05-04 01:32 | 41.70882 | -91.21978 | 27805 ft | 430 kts | 266° |
| 2026-05-04 01:32 | 41.70489 | -91.25948 | 27808 ft | 430 kts | 266° |
| 2026-05-04 01:33 | 41.70093 | -91.29911 | 27813 ft | 430 kts | 266° |
| 2026-05-04 01:33 | 41.69696 | -91.33874 | 27811 ft | 430 kts | 266° |
| 2026-05-04 01:33 | 41.69297 | -91.37841 | 27814 ft | 430 kts | 266° |
| 2026-05-04 01:33 | 41.68896 | -91.41804 | 27816 ft | 430 kts | 266° |
| 2026-05-04 01:34 | 41.68493 | -91.45769 | 27815 ft | 430 kts | 266° |
| 2026-05-04 01:34 | 41.68092 | -91.49677 | 27817 ft | 430 kts | 266° |
| 2026-05-04 01:34 | 41.67685 | -91.53645 | 27806 ft | 430 kts | 266° |
| 2026-05-04 01:34 | 41.67282 | -91.57600 | 27805 ft | 429 kts | 266° |
| 2026-05-04 01:35 | 41.66877 | -91.61554 | 27816 ft | 430 kts | 266° |
| 2026-05-04 01:35 | 41.66467 | -91.65513 | 27817 ft | 430 kts | 266° |
| 2026-05-04 01:35 | 41.66055 | -91.69468 | 27816 ft | 430 kts | 266° |
| 2026-05-04 01:35 | 41.65644 | -91.73427 | 27813 ft | 430 kts | 266° |
| 2026-05-04 01:36 | 41.65236 | -91.77332 | 27812 ft | 430 kts | 266° |
| 2026-05-04 01:36 | 41.64815 | -91.81289 | 27812 ft | 430 kts | 266° |
| 2026-05-04 01:36 | 41.64393 | -91.85244 | 27808 ft | 430 kts | 266° |
| 2026-05-04 01:36 | 41.63979 | -91.89201 | 27802 ft | 430 kts | 266° |
| 2026-05-04 01:37 | 41.63560 | -91.93149 | 27819 ft | 427 kts | 266° |
| 2026-05-04 01:37 | 41.63142 | -91.97086 | 27810 ft | 427 kts | 266° |
| 2026-05-04 01:37 | 41.62723 | -92.01024 | 27801 ft | 428 kts | 266° |
| 2026-05-04 01:37 | 41.62302 | -92.04968 | 27779 ft | 429 kts | 266° |
| 2026-05-04 01:38 | 41.61878 | -92.08922 | 27421 ft | 430 kts | 266° |
| 2026-05-04 01:38 | 41.61459 | -92.12827 | 27044 ft | 432 kts | 266° |
| 2026-05-04 01:38 | 41.61032 | -92.16773 | 26411 ft | 422 kts | 265° |
| 2026-05-04 01:38 | 41.60612 | -92.20579 | 25829 ft | 407 kts | 266° |
| 2026-05-04 01:39 | 41.60209 | -92.24259 | 25301 ft | 394 kts | 266° |
| 2026-05-04 01:39 | 41.59819 | -92.27825 | 24783 ft | 382 kts | 266° |
| 2026-05-04 01:39 | 41.59433 | -92.31289 | 24290 ft | 371 kts | 266° |
| 2026-05-04 01:39 | 41.59051 | -92.34651 | 23803 ft | 362 kts | 266° |
| 2026-05-04 01:40 | 41.58688 | -92.37932 | 23319 ft | 353 kts | 266° |
| 2026-05-04 01:40 | 41.58338 | -92.41093 | 22866 ft | 343 kts | 266° |
| 2026-05-04 01:40 | 41.57996 | -92.44200 | 22415 ft | 334 kts | 266° |
| 2026-05-04 01:40 | 41.57648 | -92.47240 | 22011 ft | 330 kts | 266° |
| 2026-05-04 01:41 | 41.57308 | -92.50273 | 21555 ft | 331 kts | 266° |
| 2026-05-04 01:41 | 41.56975 | -92.53314 | 21139 ft | 331 kts | 266° |
| 2026-05-04 01:41 | 41.56636 | -92.56354 | 20696 ft | 331 kts | 265° |
| 2026-05-04 01:41 | 41.56295 | -92.59382 | 20259 ft | 329 kts | 265° |
| 2026-05-04 01:42 | 41.55960 | -92.62398 | 19818 ft | 328 kts | 265° |
| 2026-05-04 01:42 | 41.55621 | -92.65396 | 19381 ft | 325 kts | 265° |
| 2026-05-04 01:42 | 41.55289 | -92.68331 | 18956 ft | 322 kts | 265° |
| 2026-05-04 01:42 | 41.54958 | -92.71272 | 18539 ft | 319 kts | 265° |
| 2026-05-04 01:43 | 41.54624 | -92.74188 | 18111 ft | 317 kts | 265° |
| 2026-05-04 01:43 | 41.54290 | -92.77084 | 17683 ft | 314 kts | 265° |
| 2026-05-04 01:43 | 41.53962 | -92.79953 | 17422 ft | 311 kts | 265° |
| 2026-05-04 01:43 | 41.53632 | -92.82820 | 17005 ft | 315 kts | 265° |
| 2026-05-04 01:44 | 41.53297 | -92.85711 | 16592 ft | 314 kts | 265° |
| 2026-05-04 01:44 | 41.52969 | -92.88583 | 16164 ft | 312 kts | 265° |
| 2026-05-04 01:44 | 41.52637 | -92.91407 | 15747 ft | 304 kts | 264° |
| 2026-05-04 01:44 | 41.52316 | -92.94121 | 15369 ft | 296 kts | 264° |
| 2026-05-04 01:45 | 41.52008 | -92.96803 | 14970 ft | 290 kts | 264° |
| 2026-05-04 01:45 | 41.51700 | -92.99434 | 14592 ft | 284 kts | 264° |
| 2026-05-04 01:45 | 41.51088 | -93.04541 | 13837 ft | 274 kts | 264° |
| 2026-05-04 01:46 | 41.50801 | -93.07035 | 13472 ft | 270 kts | 264° |
| 2026-05-04 01:46 | 41.50518 | -93.09484 | 13133 ft | 264 kts | 264° |
| 2026-05-04 01:46 | 41.50237 | -93.11888 | 12775 ft | 260 kts | 264° |
| 2026-05-04 01:46 | 41.49958 | -93.14256 | 12442 ft | 256 kts | 264° |
| 2026-05-04 01:47 | 41.49688 | -93.16560 | 12105 ft | 253 kts | 264° |
| 2026-05-04 01:47 | 41.49415 | -93.18867 | 11768 ft | 250 kts | 264° |
| 2026-05-04 01:47 | 41.49142 | -93.21148 | 11437 ft | 248 kts | 264° |
| 2026-05-04 01:47 | 41.48872 | -93.23411 | 11111 ft | 246 kts | 264° |
| 2026-05-04 01:48 | 41.48605 | -93.25659 | 10785 ft | 245 kts | 264° |
| 2026-05-04 01:48 | 41.48338 | -93.27896 | 10465 ft | 244 kts | 264° |
| 2026-05-04 01:48 | 41.48073 | -93.30121 | 10141 ft | 243 kts | 264° |
| 2026-05-04 01:48 | 41.47898 | -93.31592 | 9928 ft | 242 kts | 264° |
| 2026-05-04 01:49 | 41.47633 | -93.33809 | 9592 ft | 242 kts | 264° |
| 2026-05-04 01:49 | 41.47369 | -93.36017 | 9287 ft | 240 kts | 263° |
| 2026-05-04 01:49 | 41.47020 | -93.38912 | 8866 ft | 238 kts | 263° |
| 2026-05-04 01:49 | 41.46758 | -93.41085 | 8560 ft | 237 kts | 263° |
| 2026-05-04 01:50 | 41.46499 | -93.43249 | 8240 ft | 236 kts | 263° |
| 2026-05-04 01:50 | 41.46325 | -93.44680 | 8032 ft | 236 kts | 263° |
| 2026-05-04 01:50 | 41.46063 | -93.46832 | 7719 ft | 235 kts | 263° |
| 2026-05-04 01:50 | 41.45803 | -93.48979 | 7420 ft | 234 kts | 262° |
| 2026-05-04 01:51 | 41.45543 | -93.51126 | 7093 ft | 235 kts | 262° |
| 2026-05-04 01:51 | 41.45283 | -93.53280 | 6787 ft | 235 kts | 262° |
| 2026-05-04 01:51 | 41.44694 | -93.55296 | 6453 ft | 238 kts | 236° |
| 2026-05-04 01:51 | 41.43312 | -93.57532 | 6123 ft | 235 kts | 233° |
| 2026-05-04 01:52 | 41.42611 | -93.58668 | 5929 ft | 235 kts | 233° |
| 2026-05-04 01:52 | 41.41578 | -93.60341 | 5659 ft | 233 kts | 233° |
| 2026-05-04 01:52 | 41.40553 | -93.61999 | 5399 ft | 231 kts | 233° |
| 2026-05-04 01:52 | 41.39547 | -93.63629 | 5147 ft | 230 kts | 233° |
| 2026-05-04 01:53 | 41.38540 | -93.65262 | 4845 ft | 230 kts | 233° |
| 2026-05-04 01:53 | 41.37531 | -93.66897 | 4573 ft | 224 kts | 233° |
| 2026-05-04 01:53 | 41.36564 | -93.68457 | 4393 ft | 211 kts | 233° |
| 2026-05-04 01:53 | 41.35646 | -93.69931 | 4087 ft | 204 kts | 233° |
| 2026-05-04 01:54 | 41.34937 | -93.71418 | 4108 ft | 181 kts | 252° |
| 2026-05-04 01:54 | 41.34740 | -93.73025 | 4169 ft | 175 kts | 273° |
| 2026-05-04 01:54 | 41.34974 | -93.74599 | 4249 ft | 174 kts | 290° |
| 2026-05-04 01:54 | 41.35585 | -93.75993 | 4143 ft | 182 kts | 310° |
| 2026-05-04 01:55 | 41.36598 | -93.76989 | 3986 ft | 182 kts | 332° |
| 2026-05-04 01:55 | 41.37820 | -93.77425 | 3860 ft | 183 kts | 352° |
| 2026-05-04 01:55 | 41.39103 | -93.77344 | 3759 ft | 185 kts | 2° |
| 2026-05-04 01:55 | 41.40384 | -93.77156 | 3661 ft | 184 kts | 2° |
| 2026-05-04 01:56 | 41.41678 | -93.76985 | 3539 ft | 192 kts | 1° |
| 2026-05-04 01:56 | 41.43030 | -93.76815 | 3425 ft | 197 kts | 1° |
| 2026-05-04 01:56 | 41.44399 | -93.76652 | 3282 ft | 198 kts | 1° |
| 2026-05-04 01:56 | 41.45766 | -93.76495 | 3081 ft | 198 kts | 1° |
| 2026-05-04 01:57 | 41.47110 | -93.76351 | 2837 ft | 187 kts | 0° |
| 2026-05-04 01:57 | 41.48305 | -93.75899 | 2571 ft | 187 kts | 36° |
| 2026-05-04 01:57 | 41.49078 | -93.74505 | 2350 ft | 186 kts | 59° |
| 2026-05-04 01:57 | 41.49625 | -93.73022 | 2077 ft | 169 kts | 61° |
| 2026-05-04 01:58 | 41.50200 | -93.71715 | 1864 ft | 164 kts | 55° |
| 2026-05-04 01:58 | 41.50810 | -93.70456 | 1623 ft | 161 kts | 52° |
| 2026-05-04 01:58 | 41.51475 | -93.69290 | 1346 ft | 157 kts | 53° |
| 2026-05-04 01:58 | 41.52110 | -93.68123 | 1048 ft | 153 kts | 51° |
| 2026-05-04 01:59 | 41.52697 | -93.67045 | 907 ft | 129 kts | 50° |
| 2026-05-04 01:59 | 41.53145 | -93.66245 | 914 ft | 88 kts | 54° |
| 2026-05-04 01:59 | 41.53426 | -93.65734 | 917 ft | 45 kts | 52° |
| 2026-05-04 01:59 | 41.53594 | -93.65426 | 916 ft | 34 kts | 56° |
| 2026-05-04 02:00 | 41.53617 | -93.65269 | 921 ft | 12 kts | 149° |
| 2026-05-04 02:00 | 41.53550 | -93.65215 | 922 ft | 10 kts | 141° |
| 2026-05-04 02:00 | 41.53500 | -93.65162 | 922 ft | 8 kts | 159° |
| 2026-05-04 02:00 | 41.53443 | -93.65152 | 923 ft | 9 kts | 184° |
| 2026-05-04 02:01 | 41.53417 | -93.65140 | 921 ft | 1 kts | 99° |
| 2026-05-04 02:01 | 41.53419 | -93.65129 | 922 ft | 3 kts | 78° |
| 2026-05-04 02:01 | 41.53419 | -93.65104 | 922 ft | 2 kts | 90° |
| 2026-05-04 02:01 | 41.53419 | -93.65090 | 923 ft | 0 kts | 90° |
| 2026-05-04 02:03 | 41.53419 | -93.65089 | 923 ft | 0 kts | 88° |